sensor_id;sensor_type;location;lat;lon;timestamp;temperature;humidity
68378;DHT22;55322;48.146;11.516;2023-02-22T00:00:14;3.77;88.96
68378;DHT22;55322;48.146;11.516;2023-02-22T00:02:45;3.70;89.18
68378;DHT22;55322;48.146;11.516;2023-02-22T00:05:10;3.70;89.29
68378;DHT22;55322;48.146;11.516;2023-02-22T00:07:39;3.79;88.93
68378;DHT22;55322;48.146;11.516;2023-02-22T00:10:05;3.79;88.85
68378;DHT22;55322;48.146;11.516;2023-02-22T00:12:38;3.71;88.69
68378;DHT22;55322;48.146;11.516;2023-02-22T00:15:03;3.63;89.16
68378;DHT22;55322;48.146;11.516;2023-02-22T00:17:29;3.55;89.17
68378;DHT22;55322;48.146;11.516;2023-02-22T00:19:55;3.48;89.83
68378;DHT22;55322;48.146;11.516;2023-02-22T00:22:20;3.47;89.50
68378;DHT22;55322;48.146;11.516;2023-02-22T00:24:45;3.38;89.85
68378;DHT22;55322;48.146;11.516;2023-02-22T00:27:12;3.34;89.95
68378;DHT22;55322;48.146;11.516;2023-02-22T00:29:37;3.37;90.13
68378;DHT22;55322;48.146;11.516;2023-02-22T00:32:03;3.28;90.13
68378;DHT22;55322;48.146;11.516;2023-02-22T00:34:28;3.35;90.12
68378;DHT22;55322;48.146;11.516;2023-02-22T00:36:53;3.37;90.14
68378;DHT22;55322;48.146;11.516;2023-02-22T00:39:19;3.41;90.10
68378;DHT22;55322;48.146;11.516;2023-02-22T00:41:44;3.41;89.76
68378;DHT22;55322;48.146;11.516;2023-02-22T00:44:10;3.38;89.89
68378;DHT22;55322;48.146;11.516;2023-02-22T00:46:36;3.57;89.23
68378;DHT22;55322;48.146;11.516;2023-02-22T00:49:01;3.91;87.71
68378;DHT22;55322;48.146;11.516;2023-02-22T00:51:27;3.99;87.44
68378;DHT22;55322;48.146;11.516;2023-02-22T00:53:53;4.19;86.54
68378;DHT22;55322;48.146;11.516;2023-02-22T00:56:18;4.38;84.80
68378;DHT22;55322;48.146;11.516;2023-02-22T00:58:43;4.45;84.83
68378;DHT22;55322;48.146;11.516;2023-02-22T01:01:09;4.38;84.98
68378;DHT22;55322;48.146;11.516;2023-02-22T01:03:34;4.45;84.24
68378;DHT22;55322;48.146;11.516;2023-02-22T01:05:59;4.53;83.52
68378;DHT22;55322;48.146;11.516;2023-02-22T01:08:25;4.67;82.29
68378;DHT22;55322;48.146;11.516;2023-02-22T01:10:50;4.76;81.97
68378;DHT22;55322;48.146;11.516;2023-02-22T01:13:16;4.72;82.09
68378;DHT22;55322;48.146;11.516;2023-02-22T01:15:44;4.74;81.50
68378;DHT22;55322;48.146;11.516;2023-02-22T01:18:11;4.59;82.31
68378;DHT22;55322;48.146;11.516;2023-02-22T01:20:37;4.56;82.34
68378;DHT22;55322;48.146;11.516;2023-02-22T01:23:04;4.29;84.12
68378;DHT22;55322;48.146;11.516;2023-02-22T01:25:31;3.91;86.12
68378;DHT22;55322;48.146;11.516;2023-02-22T01:27:58;3.82;86.12
68378;DHT22;55322;48.146;11.516;2023-02-22T01:30:29;3.70;86.10
68378;DHT22;55322;48.146;11.516;2023-02-22T01:32:57;3.57;87.05
68378;DHT22;55322;48.146;11.516;2023-02-22T01:35:28;3.55;87.19
68378;DHT22;55322;48.146;11.516;2023-02-22T01:37:54;3.50;86.99
68378;DHT22;55322;48.146;11.516;2023-02-22T01:40:26;3.33;87.51
68378;DHT22;55322;48.146;11.516;2023-02-22T01:42:54;3.23;88.31
68378;DHT22;55322;48.146;11.516;2023-02-22T01:48:07;3.22;88.23
68378;DHT22;55322;48.146;11.516;2023-02-22T01:50:38;3.20;88.21
68378;DHT22;55322;48.146;11.516;2023-02-22T01:53:05;3.13;88.26
68378;DHT22;55322;48.146;11.516;2023-02-22T01:55:33;3.04;88.42
68378;DHT22;55322;48.146;11.516;2023-02-22T01:58:00;2.95;88.78
68378;DHT22;55322;48.146;11.516;2023-02-22T02:00:25;2.93;89.06
68378;DHT22;55322;48.146;11.516;2023-02-22T02:02:56;2.97;88.61
68378;DHT22;55322;48.146;11.516;2023-02-22T02:05:28;2.96;88.94
68378;DHT22;55322;48.146;11.516;2023-02-22T02:07:56;2.89;88.82
68378;DHT22;55322;48.146;11.516;2023-02-22T02:10:22;2.93;88.62
68378;DHT22;55322;48.146;11.516;2023-02-22T02:12:49;2.97;88.75
68378;DHT22;55322;48.146;11.516;2023-02-22T02:15:30;3.00;88.34
68378;DHT22;55322;48.146;11.516;2023-02-22T02:17:58;3.09;88.05
68378;DHT22;55322;48.146;11.516;2023-02-22T02:33:41;4.03;82.95
68378;DHT22;55322;48.146;11.516;2023-02-22T02:38:43;4.05;82.68
68378;DHT22;55322;48.146;11.516;2023-02-22T02:43:46;4.26;80.04
68378;DHT22;55322;48.146;11.516;2023-02-22T02:46:26;4.39;79.20
68378;DHT22;55322;48.146;11.516;2023-02-22T02:49:01;4.38;79.90
68378;DHT22;55322;48.146;11.516;2023-02-22T02:51:35;4.35;79.66
68378;DHT22;55322;48.146;11.516;2023-02-22T02:54:03;4.36;79.05
68378;DHT22;55322;48.146;11.516;2023-02-22T02:56:29;4.33;79.25
68378;DHT22;55322;48.146;11.516;2023-02-22T02:58:55;4.26;80.18
68378;DHT22;55322;48.146;11.516;2023-02-22T03:16:16;3.98;81.75
68378;DHT22;55322;48.146;11.516;2023-02-22T03:18:27;4.06;80.56
68378;DHT22;55322;48.146;11.516;2023-02-22T03:21:08;4.10;80.20
68378;DHT22;55322;48.146;11.516;2023-02-22T03:24:06;4.02;81.00
68378;DHT22;55322;48.146;11.516;2023-02-22T03:26:40;4.01;81.19
68378;DHT22;55322;48.146;11.516;2023-02-22T03:29:08;3.91;82.16
68378;DHT22;55322;48.146;11.516;2023-02-22T03:31:40;3.88;81.66
68378;DHT22;55322;48.146;11.516;2023-02-22T03:34:10;3.78;82.24
68378;DHT22;55322;48.146;11.516;2023-02-22T03:36:49;3.82;82.07
68378;DHT22;55322;48.146;11.516;2023-02-22T03:39:20;3.84;81.74
68378;DHT22;55322;48.146;11.516;2023-02-22T03:42:37;3.73;82.58
68378;DHT22;55322;48.146;11.516;2023-02-22T03:44:45;3.73;81.94
68378;DHT22;55322;48.146;11.516;2023-02-22T03:47:17;3.73;81.83
68378;DHT22;55322;48.146;11.516;2023-02-22T03:49:55;3.70;82.21
68378;DHT22;55322;48.146;11.516;2023-02-22T03:52:22;3.63;82.02
68378;DHT22;55322;48.146;11.516;2023-02-22T03:54:49;3.54;81.99
68378;DHT22;55322;48.146;11.516;2023-02-22T03:57:34;3.50;82.24
68378;DHT22;55322;48.146;11.516;2023-02-22T04:00:02;3.43;82.09
68378;DHT22;55322;48.146;11.516;2023-02-22T04:02:30;3.23;83.84
68378;DHT22;55322;48.146;11.516;2023-02-22T04:04:55;3.04;83.97
68378;DHT22;55322;48.146;11.516;2023-02-22T04:07:21;3.02;83.90
68378;DHT22;55322;48.146;11.516;2023-02-22T04:09:46;3.06;83.56
68378;DHT22;55322;48.146;11.516;2023-02-22T04:12:11;3.03;84.59
68378;DHT22;55322;48.146;11.516;2023-02-22T04:14:37;2.96;84.26
68378;DHT22;55322;48.146;11.516;2023-02-22T04:17:02;2.89;84.40
68378;DHT22;55322;48.146;11.516;2023-02-22T04:19:27;2.76;85.53
68378;DHT22;55322;48.146;11.516;2023-02-22T04:21:53;2.75;85.47
68378;DHT22;55322;48.146;11.516;2023-02-22T04:24:18;2.58;85.82
68378;DHT22;55322;48.146;11.516;2023-02-22T04:26:43;2.59;85.99
68378;DHT22;55322;48.146;11.516;2023-02-22T04:29:09;2.56;85.90
68378;DHT22;55322;48.146;11.516;2023-02-22T04:31:34;2.59;86.27
68378;DHT22;55322;48.146;11.516;2023-02-22T04:34:00;2.48;86.33
68378;DHT22;55322;48.146;11.516;2023-02-22T04:36:26;2.45;86.71
68378;DHT22;55322;48.146;11.516;2023-02-22T04:38:52;2.42;86.39
68378;DHT22;55322;48.146;11.516;2023-02-22T04:41:18;2.39;86.37
68378;DHT22;55322;48.146;11.516;2023-02-22T04:43:45;2.37;86.87
68378;DHT22;55322;48.146;11.516;2023-02-22T04:46:11;2.38;86.90
68378;DHT22;55322;48.146;11.516;2023-02-22T04:48:36;2.22;87.65
68378;DHT22;55322;48.146;11.516;2023-02-22T04:51:02;2.22;87.82
68378;DHT22;55322;48.146;11.516;2023-02-22T04:53:27;2.21;87.41
68378;DHT22;55322;48.146;11.516;2023-02-22T04:55:52;2.18;87.49
68378;DHT22;55322;48.146;11.516;2023-02-22T04:58:18;2.11;88.05
68378;DHT22;55322;48.146;11.516;2023-02-22T05:00:43;2.00;88.61
68378;DHT22;55322;48.146;11.516;2023-02-22T05:03:09;2.07;88.34
68378;DHT22;55322;48.146;11.516;2023-02-22T05:05:34;1.93;88.73
68378;DHT22;55322;48.146;11.516;2023-02-22T05:07:59;1.90;87.96
68378;DHT22;55322;48.146;11.516;2023-02-22T05:10:25;1.90;88.52
68378;DHT22;55322;48.146;11.516;2023-02-22T05:12:50;1.97;88.56
68378;DHT22;55322;48.146;11.516;2023-02-22T05:15:18;1.98;88.37
68378;DHT22;55322;48.146;11.516;2023-02-22T05:17:44;1.95;88.02
68378;DHT22;55322;48.146;11.516;2023-02-22T05:20:16;1.90;88.24
68378;DHT22;55322;48.146;11.516;2023-02-22T05:22:45;1.93;88.37
68378;DHT22;55322;48.146;11.516;2023-02-22T05:25:11;1.90;88.39
68378;DHT22;55322;48.146;11.516;2023-02-22T05:27:36;1.85;88.92
68378;DHT22;55322;48.146;11.516;2023-02-22T05:30:02;1.80;89.55
68378;DHT22;55322;48.146;11.516;2023-02-22T05:32:28;1.83;89.93
68378;DHT22;55322;48.146;11.516;2023-02-22T05:34:53;1.77;89.63
68378;DHT22;55322;48.146;11.516;2023-02-22T05:37:18;1.84;89.45
68378;DHT22;55322;48.146;11.516;2023-02-22T05:39:43;1.80;89.39
68378;DHT22;55322;48.146;11.516;2023-02-22T05:42:10;1.71;89.69
68378;DHT22;55322;48.146;11.516;2023-02-22T05:44:35;1.80;89.54
68378;DHT22;55322;48.146;11.516;2023-02-22T05:47:01;1.73;89.55
68378;DHT22;55322;48.146;11.516;2023-02-22T05:49:26;1.73;89.50
68378;DHT22;55322;48.146;11.516;2023-02-22T05:51:51;1.74;89.75
68378;DHT22;55322;48.146;11.516;2023-02-22T05:54:17;1.75;89.71
68378;DHT22;55322;48.146;11.516;2023-02-22T05:56:42;1.80;89.71
68378;DHT22;55322;48.146;11.516;2023-02-22T05:59:07;1.78;89.82
68378;DHT22;55322;48.146;11.516;2023-02-22T06:01:33;2.13;87.61
68378;DHT22;55322;48.146;11.516;2023-02-22T06:03:58;2.20;87.39
68378;DHT22;55322;48.146;11.516;2023-02-22T06:06:23;2.60;84.13
68378;DHT22;55322;48.146;11.516;2023-02-22T06:08:49;2.99;81.23
68378;DHT22;55322;48.146;11.516;2023-02-22T06:11:14;3.26;79.70
68378;DHT22;55322;48.146;11.516;2023-02-22T06:13:39;3.73;76.52
68378;DHT22;55322;48.146;11.516;2023-02-22T06:16:05;3.94;75.31
68378;DHT22;55322;48.146;11.516;2023-02-22T06:18:31;3.95;75.08
68378;DHT22;55322;48.146;11.516;2023-02-22T06:20:57;4.03;74.77
68378;DHT22;55322;48.146;11.516;2023-02-22T06:23:23;4.02;74.95
68378;DHT22;55322;48.146;11.516;2023-02-22T06:25:48;4.08;74.72
68378;DHT22;55322;48.146;11.516;2023-02-22T06:28:14;4.12;74.45
68378;DHT22;55322;48.146;11.516;2023-02-22T06:30:40;4.13;75.22
68378;DHT22;55322;48.146;11.516;2023-02-22T06:33:07;4.12;74.48
68378;DHT22;55322;48.146;11.516;2023-02-22T06:35:32;4.15;74.29
68378;DHT22;55322;48.146;11.516;2023-02-22T06:37:57;4.08;75.86
68378;DHT22;55322;48.146;11.516;2023-02-22T06:40:23;4.05;75.83
68378;DHT22;55322;48.146;11.516;2023-02-22T06:42:53;4.06;76.11
68378;DHT22;55322;48.146;11.516;2023-02-22T06:45:18;3.79;79.15
68378;DHT22;55322;48.146;11.516;2023-02-22T06:47:44;3.65;80.42
68378;DHT22;55322;48.146;11.516;2023-02-22T06:52:43;3.60;78.84
68378;DHT22;55322;48.146;11.516;2023-02-22T06:55:08;3.68;78.75
68378;DHT22;55322;48.146;11.516;2023-02-22T06:57:33;3.92;76.44
68378;DHT22;55322;48.146;11.516;2023-02-22T06:59:58;3.94;76.71
68378;DHT22;55322;48.146;11.516;2023-02-22T07:02:24;4.02;77.26
68378;DHT22;55322;48.146;11.516;2023-02-22T07:04:49;3.95;77.90
68378;DHT22;55322;48.146;11.516;2023-02-22T07:07:14;4.08;78.24
68378;DHT22;55322;48.146;11.516;2023-02-22T07:09:40;4.09;78.75
68378;DHT22;55322;48.146;11.516;2023-02-22T07:12:05;3.92;77.83
68378;DHT22;55322;48.146;11.516;2023-02-22T07:14:31;3.95;76.88
68378;DHT22;55322;48.146;11.516;2023-02-22T07:16:57;4.13;75.30
68378;DHT22;55322;48.146;11.516;2023-02-22T07:19:22;4.36;74.65
68378;DHT22;55322;48.146;11.516;2023-02-22T07:21:48;4.39;74.20
68378;DHT22;55322;48.146;11.516;2023-02-22T07:24:15;4.50;73.88
68378;DHT22;55322;48.146;11.516;2023-02-22T07:26:41;4.57;73.83
68378;DHT22;55322;48.146;11.516;2023-02-22T07:29:07;4.62;73.63
68378;DHT22;55322;48.146;11.516;2023-02-22T07:31:36;4.73;73.41
68378;DHT22;55322;48.146;11.516;2023-02-22T07:34:02;4.90;72.37
68378;DHT22;55322;48.146;11.516;2023-02-22T07:36:27;5.60;70.78
68378;DHT22;55322;48.146;11.516;2023-02-22T07:38:53;6.38;67.98
68378;DHT22;55322;48.146;11.516;2023-02-22T07:41:18;7.12;65.95
68378;DHT22;55322;48.146;11.516;2023-02-22T07:43:43;7.84;63.65
68378;DHT22;55322;48.146;11.516;2023-02-22T07:46:09;8.52;62.55
68378;DHT22;55322;48.146;11.516;2023-02-22T07:48:34;9.18;59.09
68378;DHT22;55322;48.146;11.516;2023-02-22T07:50:59;9.61;57.78
68378;DHT22;55322;48.146;11.516;2023-02-22T07:53:30;9.95;55.79
68378;DHT22;55322;48.146;11.516;2023-02-22T07:55:57;10.29;54.30
68378;DHT22;55322;48.146;11.516;2023-02-22T07:58:25;10.84;53.46
68378;DHT22;55322;48.146;11.516;2023-02-22T08:00:51;10.82;52.50
68378;DHT22;55322;48.146;11.516;2023-02-22T08:03:18;10.92;52.14
68378;DHT22;55322;48.146;11.516;2023-02-22T08:05:46;11.37;52.63
68378;DHT22;55322;48.146;11.516;2023-02-22T08:08:12;11.78;53.84
68378;DHT22;55322;48.146;11.516;2023-02-22T08:10:40;12.21;50.07
68378;DHT22;55322;48.146;11.516;2023-02-22T08:13:06;12.60;49.49
68378;DHT22;55322;48.146;11.516;2023-02-22T08:15:38;12.72;47.83
68378;DHT22;55322;48.146;11.516;2023-02-22T08:18:06;12.76;46.89
68378;DHT22;55322;48.146;11.516;2023-02-22T08:20:33;13.08;46.52
68378;DHT22;55322;48.146;11.516;2023-02-22T08:22:59;12.55;45.86
68378;DHT22;55322;48.146;11.516;2023-02-22T08:25:27;13.34;47.61
68378;DHT22;55322;48.146;11.516;2023-02-22T08:27:56;13.53;45.30
68378;DHT22;55322;48.146;11.516;2023-02-22T08:30:23;14.09;43.78
68378;DHT22;55322;48.146;11.516;2023-02-22T08:32:49;14.29;43.76
68378;DHT22;55322;48.146;11.516;2023-02-22T08:35:16;14.76;42.14
68378;DHT22;55322;48.146;11.516;2023-02-22T08:37:46;15.08;41.15
68378;DHT22;55322;48.146;11.516;2023-02-22T08:40:12;14.98;40.82
68378;DHT22;55322;48.146;11.516;2023-02-22T08:42:38;15.39;42.06
68378;DHT22;55322;48.146;11.516;2023-02-22T08:45:03;15.35;42.29
68378;DHT22;55322;48.146;11.516;2023-02-22T08:47:29;16.17;39.46
68378;DHT22;55322;48.146;11.516;2023-02-22T08:49:54;15.63;41.00
68378;DHT22;55322;48.146;11.516;2023-02-22T08:52:19;15.92;38.85
68378;DHT22;55322;48.146;11.516;2023-02-22T08:54:46;16.20;39.20
68378;DHT22;55322;48.146;11.516;2023-02-22T08:57:11;15.83;38.30
68378;DHT22;55322;48.146;11.516;2023-02-22T08:59:37;15.73;38.22
68378;DHT22;55322;48.146;11.516;2023-02-22T09:02:02;15.59;38.85
68378;DHT22;55322;48.146;11.516;2023-02-22T09:04:27;15.83;38.46
68378;DHT22;55322;48.146;11.516;2023-02-22T09:06:53;16.80;36.60
68378;DHT22;55322;48.146;11.516;2023-02-22T09:09:19;17.05;36.02
68378;DHT22;55322;48.146;11.516;2023-02-22T09:11:46;17.18;38.59
68378;DHT22;55322;48.146;11.516;2023-02-22T09:14:12;17.14;38.90
68378;DHT22;55322;48.146;11.516;2023-02-22T09:16:38;18.01;36.13
68378;DHT22;55322;48.146;11.516;2023-02-22T09:19:04;17.46;39.37
68378;DHT22;55322;48.146;11.516;2023-02-22T09:23:57;17.63;35.29
68378;DHT22;55322;48.146;11.516;2023-02-22T09:26:25;16.89;36.48
68378;DHT22;55322;48.146;11.516;2023-02-22T09:28:52;15.03;38.92
68378;DHT22;55322;48.146;11.516;2023-02-22T09:31:17;15.58;39.53
68378;DHT22;55322;48.146;11.516;2023-02-22T09:33:42;16.87;36.04
68378;DHT22;55322;48.146;11.516;2023-02-22T09:36:08;17.32;35.56
68378;DHT22;55322;48.146;11.516;2023-02-22T09:38:34;17.40;37.31
68378;DHT22;55322;48.146;11.516;2023-02-22T09:46:27;19.22;32.05
68378;DHT22;55322;48.146;11.516;2023-02-22T09:49:11;19.66;30.97
68378;DHT22;55322;48.146;11.516;2023-02-22T09:51:41;19.05;32.96
68378;DHT22;55322;48.146;11.516;2023-02-22T09:54:28;19.65;33.77
68378;DHT22;55322;48.146;11.516;2023-02-22T09:56:55;19.50;32.39
68378;DHT22;55322;48.146;11.516;2023-02-22T09:59:27;18.69;31.98
68378;DHT22;55322;48.146;11.516;2023-02-22T10:02:21;18.95;32.19
68378;DHT22;55322;48.146;11.516;2023-02-22T10:04:53;17.15;35.49
68378;DHT22;55322;48.146;11.516;2023-02-22T10:07:35;17.26;33.67
68378;DHT22;55322;48.146;11.516;2023-02-22T10:10:03;16.92;34.13
68378;DHT22;55322;48.146;11.516;2023-02-22T10:15:26;17.01;34.35
68378;DHT22;55322;48.146;11.516;2023-02-22T10:26:13;17.08;34.44
68378;DHT22;55322;48.146;11.516;2023-02-22T10:28:51;17.89;34.10
68378;DHT22;55322;48.146;11.516;2023-02-22T10:31:24;17.21;33.23
68378;DHT22;55322;48.146;11.516;2023-02-22T10:33:56;16.65;34.70
68378;DHT22;55322;48.146;11.516;2023-02-22T10:36:24;16.23;35.24
68378;DHT22;55322;48.146;11.516;2023-02-22T10:38:57;16.51;35.96
68378;DHT22;55322;48.146;11.516;2023-02-22T10:41:30;15.51;35.96
68378;DHT22;55322;48.146;11.516;2023-02-22T10:43:56;15.88;37.35
68378;DHT22;55322;48.146;11.516;2023-02-22T10:46:23;16.47;35.71
68378;DHT22;55322;48.146;11.516;2023-02-22T10:48:51;15.83;36.61
68378;DHT22;55322;48.146;11.516;2023-02-22T10:51:18;17.04;36.67
68378;DHT22;55322;48.146;11.516;2023-02-22T10:53:44;17.72;36.59
68378;DHT22;55322;48.146;11.516;2023-02-22T10:56:22;18.27;32.91
68378;DHT22;55322;48.146;11.516;2023-02-22T10:58:54;19.04;34.05
68378;DHT22;55322;48.146;11.516;2023-02-22T11:03:59;19.69;30.56
68378;DHT22;55322;48.146;11.516;2023-02-22T11:06:25;17.72;32.33
68378;DHT22;55322;48.146;11.516;2023-02-22T11:09:03;17.82;35.24
68378;DHT22;55322;48.146;11.516;2023-02-22T11:11:29;18.03;32.56
68378;DHT22;55322;48.146;11.516;2023-02-22T11:13:55;17.14;33.56
68378;DHT22;55322;48.146;11.516;2023-02-22T11:16:34;17.93;33.47
68378;DHT22;55322;48.146;11.516;2023-02-22T11:19:09;18.11;32.61
68378;DHT22;55322;48.146;11.516;2023-02-22T11:21:36;18.79;32.62
68378;DHT22;55322;48.146;11.516;2023-02-22T11:24:07;18.61;31.42
68378;DHT22;55322;48.146;11.516;2023-02-22T11:26:40;17.78;33.66
68378;DHT22;55322;48.146;11.516;2023-02-22T11:31:52;18.63;32.35
68378;DHT22;55322;48.146;11.516;2023-02-22T11:34:39;18.87;31.21
68378;DHT22;55322;48.146;11.516;2023-02-22T11:39:44;17.96;33.19
68378;DHT22;55322;48.146;11.516;2023-02-22T11:42:26;17.29;34.48
68378;DHT22;55322;48.146;11.516;2023-02-22T11:47:47;17.22;36.21
68378;DHT22;55322;48.146;11.516;2023-02-22T11:50:36;16.81;36.35
68378;DHT22;55322;48.146;11.516;2023-02-22T11:53:26;17.45;37.41
68378;DHT22;55322;48.146;11.516;2023-02-22T11:56:21;17.93;35.92
68378;DHT22;55322;48.146;11.516;2023-02-22T11:58:50;17.66;34.88
68378;DHT22;55322;48.146;11.516;2023-02-22T12:01:42;17.87;35.14
68378;DHT22;55322;48.146;11.516;2023-02-22T12:07:52;16.91;36.52
68378;DHT22;55322;48.146;11.516;2023-02-22T12:10:53;16.73;37.08
68378;DHT22;55322;48.146;11.516;2023-02-22T12:13:36;17.28;37.11
68378;DHT22;55322;48.146;11.516;2023-02-22T12:17:11;17.11;36.10
68378;DHT22;55322;48.146;11.516;2023-02-22T12:22:00;17.72;38.08
68378;DHT22;55322;48.146;11.516;2023-02-22T12:24:37;17.22;36.10
68378;DHT22;55322;48.146;11.516;2023-02-22T12:27:10;16.78;36.83
68378;DHT22;55322;48.146;11.516;2023-02-22T12:29:49;16.56;36.97
68378;DHT22;55322;48.146;11.516;2023-02-22T12:32:23;16.75;37.10
68378;DHT22;55322;48.146;11.516;2023-02-22T12:35:14;16.57;38.82
68378;DHT22;55322;48.146;11.516;2023-02-22T12:37:55;16.49;37.83
68378;DHT22;55322;48.146;11.516;2023-02-22T12:45:44;17.32;39.49
68378;DHT22;55322;48.146;11.516;2023-02-22T12:48:56;16.81;37.86
68378;DHT22;55322;48.146;11.516;2023-02-22T12:51:24;16.51;37.96
68378;DHT22;55322;48.146;11.516;2023-02-22T12:54:15;16.41;38.69
68378;DHT22;55322;48.146;11.516;2023-02-22T12:56:56;16.36;39.19
68378;DHT22;55322;48.146;11.516;2023-02-22T12:59:46;16.21;40.11
68378;DHT22;55322;48.146;11.516;2023-02-22T13:02:34;16.41;38.82
68378;DHT22;55322;48.146;11.516;2023-02-22T13:05:01;16.94;38.84
68378;DHT22;55322;48.146;11.516;2023-02-22T13:19:00;16.43;39.69
68378;DHT22;55322;48.146;11.516;2023-02-22T13:23:57;15.98;39.65
68378;DHT22;55322;48.146;11.516;2023-02-22T13:26:42;15.75;39.98
68378;DHT22;55322;48.146;11.516;2023-02-22T13:29:23;15.69;41.51
68378;DHT22;55322;48.146;11.516;2023-02-22T13:32:07;15.73;40.05
68378;DHT22;55322;48.146;11.516;2023-02-22T13:48:26;16.94;38.49
68378;DHT22;55322;48.146;11.516;2023-02-22T13:56:53;16.68;40.79
68378;DHT22;55322;48.146;11.516;2023-02-22T13:59:26;16.60;39.91
68378;DHT22;55322;48.146;11.516;2023-02-22T14:01:52;16.59;40.08
68378;DHT22;55322;48.146;11.516;2023-02-22T14:09:41;16.03;41.55
68378;DHT22;55322;48.146;11.516;2023-02-22T14:17:43;15.96;41.73
68378;DHT22;55322;48.146;11.516;2023-02-22T14:22:45;16.29;41.18
68378;DHT22;55322;48.146;11.516;2023-02-22T14:27:58;16.63;42.42
68378;DHT22;55322;48.146;11.516;2023-02-22T14:30:26;16.46;41.43
68378;DHT22;55322;48.146;11.516;2023-02-22T14:32:52;16.19;43.58
68378;DHT22;55322;48.146;11.516;2023-02-22T14:35:19;15.72;43.57
68378;DHT22;55322;48.146;11.516;2023-02-22T14:37:53;15.66;45.58
68378;DHT22;55322;48.146;11.516;2023-02-22T14:42:48;15.38;44.82
68378;DHT22;55322;48.146;11.516;2023-02-22T14:45:28;15.23;44.81
68378;DHT22;55322;48.146;11.516;2023-02-22T14:50:59;14.84;44.50
68378;DHT22;55322;48.146;11.516;2023-02-22T14:53:37;14.66;45.83
68378;DHT22;55322;48.146;11.516;2023-02-22T14:56:07;14.64;46.70
68378;DHT22;55322;48.146;11.516;2023-02-22T14:58:58;14.60;46.32
68378;DHT22;55322;48.146;11.516;2023-02-22T15:01:36;14.61;50.20
68378;DHT22;55322;48.146;11.516;2023-02-22T15:04:22;14.44;46.95
68378;DHT22;55322;48.146;11.516;2023-02-22T15:06:51;14.39;46.46
68378;DHT22;55322;48.146;11.516;2023-02-22T15:09:22;14.43;47.88
68378;DHT22;55322;48.146;11.516;2023-02-22T15:11:50;14.26;47.43
68378;DHT22;55322;48.146;11.516;2023-02-22T15:16:51;14.05;50.31
68378;DHT22;55322;48.146;11.516;2023-02-22T15:19:23;14.04;46.91
68378;DHT22;55322;48.146;11.516;2023-02-22T15:21:52;13.98;48.04
68378;DHT22;55322;48.146;11.516;2023-02-22T15:24:21;13.83;48.23
68378;DHT22;55322;48.146;11.516;2023-02-22T15:26:48;13.61;49.96
68378;DHT22;55322;48.146;11.516;2023-02-22T15:29:17;13.65;47.50
68378;DHT22;55322;48.146;11.516;2023-02-22T15:31:43;13.62;50.83
68378;DHT22;55322;48.146;11.516;2023-02-22T15:36:41;13.44;48.95
68378;DHT22;55322;48.146;11.516;2023-02-22T15:39:18;13.43;54.36
68378;DHT22;55322;48.146;11.516;2023-02-22T15:41:43;13.41;49.30
68378;DHT22;55322;48.146;11.516;2023-02-22T15:44:09;13.41;50.48
68378;DHT22;55322;48.146;11.516;2023-02-22T15:46:37;13.38;49.17
68378;DHT22;55322;48.146;11.516;2023-02-22T15:49:22;13.34;48.26
68378;DHT22;55322;48.146;11.516;2023-02-22T15:52:02;13.25;47.76
68378;DHT22;55322;48.146;11.516;2023-02-22T15:54:35;13.14;48.74
68378;DHT22;55322;48.146;11.516;2023-02-22T15:57:01;13.06;48.51
68378;DHT22;55322;48.146;11.516;2023-02-22T15:59:27;13.00;48.68
68378;DHT22;55322;48.146;11.516;2023-02-22T16:01:58;12.94;49.58
68378;DHT22;55322;48.146;11.516;2023-02-22T16:04:26;12.77;50.65
68378;DHT22;55322;48.146;11.516;2023-02-22T16:07:02;12.73;50.73
68378;DHT22;55322;48.146;11.516;2023-02-22T16:09:28;12.63;54.75
68378;DHT22;55322;48.146;11.516;2023-02-22T16:19:56;12.19;52.19
68378;DHT22;55322;48.146;11.516;2023-02-22T16:22:28;12.15;52.85
68378;DHT22;55322;48.146;11.516;2023-02-22T16:27:45;11.92;53.93
68378;DHT22;55322;48.146;11.516;2023-02-22T16:30:20;11.87;51.80
68378;DHT22;55322;48.146;11.516;2023-02-22T16:32:47;11.71;54.22
68378;DHT22;55322;48.146;11.516;2023-02-22T16:35:13;11.64;53.21
68378;DHT22;55322;48.146;11.516;2023-02-22T16:37:48;11.61;55.96
68378;DHT22;55322;48.146;11.516;2023-02-22T16:40:21;11.38;55.20
68378;DHT22;55322;48.146;11.516;2023-02-22T16:42:47;11.30;57.01
68378;DHT22;55322;48.146;11.516;2023-02-22T16:45:17;11.19;58.16
68378;DHT22;55322;48.146;11.516;2023-02-22T16:47:43;11.03;58.32
68378;DHT22;55322;48.146;11.516;2023-02-22T16:50:09;10.89;58.97
68378;DHT22;55322;48.146;11.516;2023-02-22T16:52:38;10.79;58.38
68378;DHT22;55322;48.146;11.516;2023-02-22T16:55:15;10.68;57.47
68378;DHT22;55322;48.146;11.516;2023-02-22T16:57:41;10.66;58.23
68378;DHT22;55322;48.146;11.516;2023-02-22T17:00:13;10.58;57.87
68378;DHT22;55322;48.146;11.516;2023-02-22T17:02:39;10.50;55.99
68378;DHT22;55322;48.146;11.516;2023-02-22T17:05:05;10.29;60.10
68378;DHT22;55322;48.146;11.516;2023-02-22T17:07:32;10.24;58.98
68378;DHT22;55322;48.146;11.516;2023-02-22T17:09:57;10.15;60.96
68378;DHT22;55322;48.146;11.516;2023-02-22T17:12:24;9.85;60.90
68378;DHT22;55322;48.146;11.516;2023-02-22T17:14:50;9.85;60.30
68378;DHT22;55322;48.146;11.516;2023-02-22T17:17:16;9.83;62.15
68378;DHT22;55322;48.146;11.516;2023-02-22T17:19:41;9.77;63.08
68378;DHT22;55322;48.146;11.516;2023-02-22T17:22:15;9.61;61.59
68378;DHT22;55322;48.146;11.516;2023-02-22T17:24:41;9.44;62.97
68378;DHT22;55322;48.146;11.516;2023-02-22T17:27:06;9.30;61.81
68378;DHT22;55322;48.146;11.516;2023-02-22T17:29:32;9.23;63.75
68378;DHT22;55322;48.146;11.516;2023-02-22T17:31:57;9.08;62.89
68378;DHT22;55322;48.146;11.516;2023-02-22T17:34:23;9.03;62.97
68378;DHT22;55322;48.146;11.516;2023-02-22T17:36:48;8.99;64.37
68378;DHT22;55322;48.146;11.516;2023-02-22T17:39:13;8.93;65.60
68378;DHT22;55322;48.146;11.516;2023-02-22T17:41:39;8.90;65.96
68378;DHT22;55322;48.146;11.516;2023-02-22T17:44:04;8.83;65.23
68378;DHT22;55322;48.146;11.516;2023-02-22T17:46:30;8.75;64.19
68378;DHT22;55322;48.146;11.516;2023-02-22T17:48:55;8.78;66.60
68378;DHT22;55322;48.146;11.516;2023-02-22T17:51:22;8.76;66.88
68378;DHT22;55322;48.146;11.516;2023-02-22T17:53:48;8.71;66.29
68378;DHT22;55322;48.146;11.516;2023-02-22T17:56:15;8.67;65.19
68378;DHT22;55322;48.146;11.516;2023-02-22T17:58:46;8.71;67.21
68378;DHT22;55322;48.146;11.516;2023-02-22T18:01:20;8.68;67.17
68378;DHT22;55322;48.146;11.516;2023-02-22T18:03:45;8.68;67.96
68378;DHT22;55322;48.146;11.516;2023-02-22T18:06:15;8.64;67.43
68378;DHT22;55322;48.146;11.516;2023-02-22T18:08:41;8.62;67.90